Hovedside
METAR-TAF:

METAR-TAF

Lufthavner :

Oljeplattform

Norne Fpso, Norge

breddegrad: 66-01-48N, lengdegrad: 008-04-48E, høyde over havet: 10 m

Gjeldene værobservasjon

Denne rapporten ble laget for 16 minutter siden, klokken 09:50 UTC
Vind 36 kt fra Nord
Temperatur 5°C
Luftfuktighet 65%
Trykk 1007 hPa
Sikt 10 km eller mer
Få skyer i en høyde av 3000 ft, Tårnskyer (cumulus).

METAR: ENNE 100950Z 35036KT 9999 FEW030TCU 05/M01 Q1007 W///S6

Tid: 11:06 (10:06 UTC)

Varsel

Denne rapporten ble laget for 2 timer og 6 minutter siden, klokken 08:00 UTC
Varsel gyldig fra 10. klokken 09 UTC til 10. klokken 18 UTC
Vind 38 kt fra Nord
Sikt 10 km eller mer
Spredte skyer i en høyde av 2500 ft
Brutte skyer i en høyde av 4000 ft
Midlertidig
fra 10. klokken 09 UTC til 10. klokken 12 UTC
Vind 42 kt fra Nord med vindkast opp mot 52 kt
Brutte skyer i en høyde av 1200 ft, Bygeskyer.
regnbyger

TAF: ENNE 100800Z 1009/1018 35038KT 9999 SCT025 BKN040 TEMPO 1009/1012 35042G52KT SHRA BKN012CB

Værobservasjoner og værvarsel for over 4000 flyplasser (METAR- og TAF-rapporter).

Tilgjengelige stasjoner er representert av de røde og gule prikkene på kartet.

Hold musepekeren over prikken for å se navnet på stasjonen.

Klikk så for å se værobservasjoner og -varsler.

For å forandre kartet kan du klikke på den grønne knappen med svart kryss for å zoome inn, på den grønne knappen med strek for å zoome ut, eller på de grønne pilene for å se tilstøtende kart.


METAR-TAF: